createdAt,value
2018-02-27T00:00:07.364Z,0
2018-02-27T00:01:29.284Z,0
2018-02-27T00:02:51.241Z,0
2018-02-27T00:04:12.899Z,0
2018-02-27T00:05:34.779Z,0
2018-02-27T00:06:55.891Z,0
2018-02-27T00:08:17.485Z,0
2018-02-27T00:09:39.377Z,0
2018-02-27T00:11:00.770Z,0
2018-02-27T00:12:21.591Z,0
2018-02-27T00:13:43.444Z,0
2018-02-27T00:15:05.081Z,0
2018-02-27T00:16:26.691Z,0
2018-02-27T00:17:47.642Z,0
2018-02-27T00:19:09.300Z,0
2018-02-27T00:20:30.648Z,0
2018-02-27T00:21:52.678Z,0
2018-02-27T00:23:14.541Z,0
2018-02-27T00:24:35.692Z,0
2018-02-27T00:25:57.303Z,0
2018-02-27T00:27:18.651Z,0
2018-02-27T00:28:40.640Z,0
2018-02-27T00:30:02.789Z,0
2018-02-27T00:31:24.668Z,0
2018-02-27T00:32:46.341Z,0
2018-02-27T00:34:08.176Z,0
2018-02-27T00:35:29.777Z,0
2018-02-27T00:36:51.733Z,0
2018-02-27T00:38:13.393Z,0
2018-02-27T00:39:34.482Z,0
2018-02-27T00:40:56.483Z,0
2018-02-27T00:42:18.211Z,0
2018-02-27T00:43:40.328Z,0
2018-02-27T00:45:01.662Z,0
2018-02-27T00:46:23.300Z,0
2018-02-27T00:47:45.433Z,0
2018-02-27T00:49:07.322Z,0
2018-02-27T00:50:29.195Z,0
2018-02-27T00:51:50.619Z,0
2018-02-27T00:53:12.281Z,0
2018-02-27T00:54:34.157Z,0
2018-02-27T00:55:55.991Z,0
2018-02-27T00:57:17.851Z,0
2018-02-27T00:58:39.725Z,0
2018-02-27T01:00:01.839Z,0
2018-02-27T01:01:23.975Z,0
2018-02-27T01:02:46.001Z,0
2018-02-27T01:04:07.874Z,0
2018-02-27T01:05:30.017Z,0
2018-02-27T01:06:52.242Z,0
2018-02-27T01:08:14.396Z,0
2018-02-27T01:09:36.026Z,0
2018-02-27T01:10:57.862Z,0
2018-02-27T01:12:19.450Z,0
2018-02-27T01:13:41.362Z,0
2018-02-27T01:15:03.472Z,0
2018-02-27T01:16:25.328Z,0
2018-02-27T01:17:47.589Z,0
2018-02-27T01:19:09.618Z,0
2018-02-27T01:20:31.492Z,0
2018-02-27T01:21:53.602Z,0
2018-02-27T01:23:15.824Z,0
2018-02-27T01:24:38.041Z,0
2018-02-27T01:25:59.926Z,0
2018-02-27T01:27:21.781Z,0
2018-02-27T01:28:43.635Z,0
2018-02-27T01:30:05.248Z,0
2018-02-27T01:31:27.132Z,0
2018-02-27T01:32:49.074Z,0
2018-02-27T01:34:10.677Z,0
2018-02-27T01:35:32.552Z,0
2018-02-27T01:36:54.423Z,0
2018-02-27T01:38:16.542Z,0
2018-02-27T01:39:38.706Z,0
2018-02-27T01:41:00.299Z,0
2018-02-27T01:42:21.931Z,0
2018-02-27T01:43:43.528Z,0
2018-02-27T01:45:04.875Z,0
2018-02-27T01:46:25.990Z,0
2018-02-27T01:47:48.152Z,0
2018-02-27T01:49:10.381Z,0
2018-02-27T01:50:31.970Z,0
2018-02-27T01:51:53.701Z,0
2018-02-27T01:53:15.558Z,0
2018-02-27T01:54:36.885Z,0
2018-02-27T01:55:58.003Z,0
2018-02-27T01:57:20.286Z,0
2018-02-27T01:58:42.198Z,0
2018-02-27T02:00:03.791Z,0
2018-02-27T02:01:25.420Z,0
2018-02-27T02:02:47.026Z,0
2018-02-27T02:04:08.417Z,0
2018-02-27T02:05:30.530Z,0
2018-02-27T02:06:51.595Z,0
2018-02-27T02:08:13.491Z,0
2018-02-27T02:09:35.340Z,0
2018-02-27T02:10:57.261Z,0
2018-02-27T02:12:19.182Z,0
2018-02-27T02:13:41.164Z,0
2018-02-27T02:15:03.313Z,0
2018-02-27T02:16:25.218Z,0
2018-02-27T02:17:47.042Z,0
2018-02-27T02:19:08.653Z,0
2018-02-27T02:20:30.032Z,0
2018-02-27T02:21:51.347Z,0
2018-02-27T02:23:12.421Z,0
2018-02-27T02:24:34.111Z,0
2018-02-27T02:25:55.199Z,0
2018-02-27T02:27:16.777Z,0
2018-02-27T02:28:38.622Z,0
2018-02-27T02:30:00.746Z,0
2018-02-27T02:31:22.406Z,0
2018-02-27T02:32:44.574Z,0
2018-02-27T02:34:05.899Z,0
2018-02-27T02:35:28.199Z,0
2018-02-27T02:36:50.083Z,0
2018-02-27T02:38:11.962Z,0
2018-02-27T02:39:33.850Z,0
2018-02-27T02:40:55.477Z,0
2018-02-27T02:42:17.713Z,0
2018-02-27T02:43:39.604Z,0
2018-02-27T02:45:01.198Z,0
2018-02-27T02:46:23.292Z,0
2018-02-27T02:47:45.242Z,0
2018-02-27T02:49:06.569Z,0
2018-02-27T02:50:28.689Z,0
2018-02-27T02:51:50.783Z,0
2018-02-27T02:53:12.128Z,0
2018-02-27T02:54:33.514Z,0
2018-02-27T02:55:55.397Z,0
2018-02-27T02:57:17.296Z,0
2018-02-27T02:58:39.163Z,0
2018-02-27T03:00:00.770Z,0
2018-02-27T03:01:22.693Z,0
2018-02-27T03:02:44.547Z,0
2018-02-27T03:04:06.402Z,0
2018-02-27T03:05:28.014Z,0
2018-02-27T03:06:50.000Z,0
2018-02-27T03:08:11.332Z,0
2018-02-27T03:09:33.898Z,0
2018-02-27T03:10:55.598Z,0
2018-02-27T03:12:17.185Z,0
2018-02-27T03:13:39.162Z,0
2018-02-27T03:15:00.493Z,0
2018-02-27T03:16:21.816Z,0
2018-02-27T03:17:43.156Z,0
2018-02-27T03:19:04.803Z,0
2018-02-27T03:20:26.381Z,0
2018-02-27T03:21:48.092Z,0
2018-02-27T03:23:09.816Z,0
2018-02-27T03:24:31.432Z,0
2018-02-27T03:25:53.546Z,0
2018-02-27T03:27:46.754Z,0
2018-02-27T03:29:08.100Z,0
2018-02-27T03:30:30.005Z,0
2018-02-27T03:31:51.614Z,0
2018-02-27T03:33:13.467Z,0
2018-02-27T03:34:35.321Z,0
2018-02-27T03:35:56.913Z,0
2018-02-27T03:37:18.801Z,0
2018-02-27T03:38:40.400Z,0
2018-02-27T03:40:01.821Z,0
2018-02-27T03:41:23.387Z,0
2018-02-27T03:42:45.254Z,0
2018-02-27T03:44:07.111Z,0
2018-02-27T03:45:28.457Z,0
2018-02-27T03:46:50.091Z,0
2018-02-27T03:48:11.936Z,0
2018-02-27T03:49:33.675Z,0
2018-02-27T03:50:55.273Z,0
2018-02-27T03:52:17.182Z,0
2018-02-27T03:53:39.035Z,0
2018-02-27T03:55:01.176Z,0
2018-02-27T03:56:22.510Z,0
2018-02-27T03:57:44.486Z,0
2018-02-27T03:59:06.830Z,0
2018-02-27T04:00:28.424Z,0
2018-02-27T04:01:50.310Z,0
2018-02-27T04:03:12.153Z,0
2018-02-27T04:04:33.736Z,0
2018-02-27T04:05:55.639Z,0
2018-02-27T04:07:16.712Z,0
2018-02-27T04:08:38.592Z,0
2018-02-27T04:10:00.682Z,0
2018-02-27T04:11:22.824Z,0
2018-02-27T04:12:44.162Z,0
2018-02-27T04:14:05.772Z,0
2018-02-27T04:15:27.691Z,0
2018-02-27T04:16:49.286Z,0
2018-02-27T04:18:10.744Z,0
2018-02-27T04:19:32.338Z,0
2018-02-27T04:20:54.025Z,0
2018-02-27T04:22:15.631Z,0
2018-02-27T04:23:37.869Z,0
2018-02-27T04:24:59.460Z,0
2018-02-27T04:26:21.092Z,0
2018-02-27T04:27:43.342Z,0
2018-02-27T04:29:05.215Z,0
2018-02-27T04:30:26.874Z,0
2018-02-27T04:31:48.500Z,0
2018-02-27T04:33:09.823Z,0
2018-02-27T04:34:31.933Z,0
2018-02-27T04:35:53.552Z,0
2018-02-27T04:37:15.554Z,0
2018-02-27T04:38:36.680Z,0
2018-02-27T04:39:58.573Z,0
2018-02-27T04:41:19.903Z,0
2018-02-27T04:42:41.875Z,0
2018-02-27T04:44:03.487Z,0
2018-02-27T04:45:25.364Z,0
2018-02-27T04:46:46.992Z,0
2018-02-27T04:48:09.112Z,0
2018-02-27T04:49:30.973Z,0
2018-02-27T04:50:52.562Z,0
2018-02-27T04:52:14.187Z,0
2018-02-27T04:53:35.301Z,0
2018-02-27T04:54:56.942Z,0
2018-02-27T04:56:18.882Z,0
2018-02-27T04:57:39.693Z,0
2018-02-27T04:59:01.045Z,0
2018-02-27T05:00:22.699Z,0
2018-02-27T05:01:44.143Z,0
2018-02-27T05:03:05.763Z,0
2018-02-27T05:04:27.644Z,0
2018-02-27T05:05:49.376Z,0
2018-02-27T05:07:10.746Z,0
2018-02-27T05:08:32.365Z,0
2018-02-27T05:09:54.294Z,0
2018-02-27T05:11:15.891Z,0
2018-02-27T05:12:37.380Z,0
2018-02-27T05:13:58.708Z,0
2018-02-27T05:15:20.615Z,0
2018-02-27T05:16:41.946Z,0
2018-02-27T05:18:03.802Z,0
2018-02-27T05:19:26.241Z,0
2018-02-27T05:20:47.585Z,0
2018-02-27T05:22:09.246Z,0
2018-02-27T05:23:30.837Z,0
2018-02-27T05:24:52.584Z,0
2018-02-27T05:26:14.533Z,0
2018-02-27T05:27:35.752Z,0
2018-02-27T05:28:56.826Z,0
2018-02-27T05:30:18.779Z,0
2018-02-27T05:31:40.385Z,0
2018-02-27T05:33:01.451Z,0
2018-02-27T05:34:23.453Z,0
2018-02-27T05:35:45.058Z,0
2018-02-27T05:37:06.374Z,0
2018-02-27T05:38:28.224Z,0
2018-02-27T05:39:50.455Z,0
2018-02-27T05:41:12.094Z,0
2018-02-27T05:42:33.728Z,0
2018-02-27T05:43:55.066Z,0
2018-02-27T05:45:16.939Z,0
2018-02-27T05:46:38.584Z,0
2018-02-27T05:48:00.706Z,0
2018-02-27T05:49:22.622Z,0
2018-02-27T05:50:44.349Z,0
2018-02-27T05:52:06.302Z,0
2018-02-27T05:53:28.173Z,0
2018-02-27T05:54:49.896Z,0
2018-02-27T05:56:10.961Z,0
2018-02-27T05:57:32.622Z,0
2018-02-27T05:58:54.842Z,0
2018-02-27T06:00:16.713Z,0
2018-02-27T06:01:38.590Z,0
2018-02-27T06:02:59.924Z,0
2018-02-27T06:04:21.004Z,0
2018-02-27T06:05:42.604Z,0
2018-02-27T06:07:04.202Z,0
2018-02-27T06:08:25.810Z,0
2018-02-27T06:09:47.434Z,5
2018-02-27T06:11:09.216Z,5
2018-02-27T06:12:31.462Z,5
2018-02-27T06:13:53.323Z,5
2018-02-27T06:15:15.034Z,5
2018-02-27T06:16:36.709Z,10
2018-02-27T06:17:58.340Z,10
2018-02-27T06:19:20.609Z,10
2018-02-27T06:20:42.734Z,10
2018-02-27T06:22:04.868Z,15
2018-02-27T06:23:26.460Z,15
2018-02-27T06:24:48.104Z,15
2018-02-27T06:26:09.703Z,15
2018-02-27T06:27:31.293Z,20
2018-02-27T06:28:53.411Z,20
2018-02-27T06:30:15.262Z,20
2018-02-27T06:31:37.205Z,25
2018-02-27T06:32:59.195Z,25
2018-02-27T06:34:21.061Z,25
2018-02-27T06:35:42.673Z,30
2018-02-27T06:37:04.654Z,30
2018-02-27T06:38:26.383Z,30
2018-02-27T06:39:47.722Z,35
2018-02-27T06:41:09.088Z,35
2018-02-27T06:42:31.348Z,35
2018-02-27T06:43:52.944Z,40
2018-02-27T06:45:14.282Z,40
2018-02-27T06:46:35.974Z,40
2018-02-27T06:47:57.583Z,40
2018-02-27T06:49:19.498Z,45
2018-02-27T06:50:41.364Z,45
2018-02-27T06:52:03.506Z,45
2018-02-27T06:53:25.161Z,50
2018-02-27T06:54:46.278Z,50
2018-02-27T06:56:07.927Z,50
2018-02-27T06:57:29.783Z,50
2018-02-27T06:58:51.691Z,50
2018-02-27T07:00:12.785Z,55
2018-02-27T07:01:34.696Z,55
2018-02-27T07:02:57.173Z,60
2018-02-27T07:04:19.325Z,60
2018-02-27T07:05:41.185Z,65
2018-02-27T07:07:02.811Z,65
2018-02-27T07:08:24.927Z,70
2018-02-27T07:09:46.645Z,70
2018-02-27T07:11:08.133Z,70
2018-02-27T07:12:29.992Z,65
2018-02-27T07:13:52.111Z,65
2018-02-27T07:15:13.176Z,65
2018-02-27T07:16:35.320Z,60
2018-02-27T07:17:57.023Z,55
2018-02-27T07:19:19.414Z,50
2018-02-27T07:20:40.746Z,45
2018-02-27T07:22:02.597Z,40
2018-02-27T07:23:24.736Z,45
2018-02-27T07:24:46.905Z,40
2018-02-27T07:26:08.526Z,45
2018-02-27T07:27:29.952Z,50
2018-02-27T07:28:51.901Z,50
2018-02-27T07:30:14.172Z,55
2018-02-27T07:31:35.614Z,55
2018-02-27T07:32:57.233Z,55
2018-02-27T07:34:18.674Z,55
2018-02-27T07:35:40.077Z,50
2018-02-27T07:37:02.073Z,55
2018-02-27T07:38:23.464Z,60
2018-02-27T07:39:45.583Z,70
2018-02-27T07:41:07.447Z,70
2018-02-27T07:42:28.784Z,70
2018-02-27T07:43:50.409Z,75
2018-02-27T07:45:12.018Z,75
2018-02-27T07:46:33.903Z,80
2018-02-27T07:47:55.539Z,75
2018-02-27T07:49:17.492Z,80
2018-02-27T07:50:39.657Z,95
2018-02-27T07:52:01.357Z,95
2018-02-27T07:53:23.092Z,100
2018-02-27T07:54:44.702Z,100
2018-02-27T07:56:06.344Z,95
2018-02-27T07:57:28.027Z,90
2018-02-27T07:58:49.965Z,95
2018-02-27T08:00:11.850Z,95
2018-02-27T08:01:33.991Z,95
2018-02-27T08:02:55.613Z,95
2018-02-27T08:04:18.018Z,95
2018-02-27T08:05:39.927Z,95
2018-02-27T08:07:01.268Z,85
2018-02-27T08:08:22.671Z,80
2018-02-27T08:09:44.576Z,80
2018-02-27T08:11:06.781Z,85
2018-02-27T08:12:28.204Z,95
2018-02-27T08:13:50.424Z,100
2018-02-27T08:15:12.347Z,110
2018-02-27T08:16:34.515Z,110
2018-02-27T08:17:56.634Z,120
2018-02-27T08:19:18.662Z,140
2018-02-27T08:20:40.398Z,175
2018-02-27T08:22:01.985Z,205
2018-02-27T08:23:23.593Z,225
2018-02-27T08:24:45.507Z,240
2018-02-27T08:26:06.860Z,245
2018-02-27T08:27:28.221Z,235
2018-02-27T08:28:50.191Z,230
2018-02-27T08:30:11.539Z,220
2018-02-27T08:31:32.934Z,210
2018-02-27T08:32:54.813Z,200
2018-02-27T08:34:16.428Z,190
2018-02-27T08:35:38.545Z,185
2018-02-27T08:37:00.742Z,175
2018-02-27T08:38:22.091Z,180
2018-02-27T08:39:43.986Z,190
2018-02-27T08:41:05.346Z,190
2018-02-27T08:42:27.108Z,185
2018-02-27T08:43:48.963Z,180
2018-02-27T08:45:10.652Z,180
2018-02-27T08:46:32.018Z,190
2018-02-27T08:47:53.902Z,200
2018-02-27T08:49:16.112Z,205
2018-02-27T08:50:37.480Z,210
2018-02-27T08:51:59.351Z,210
2018-02-27T08:53:21.480Z,220
2018-02-27T08:54:42.821Z,210
2018-02-27T08:56:04.692Z,205
2018-02-27T08:57:26.290Z,205
2018-02-27T08:58:48.169Z,210
2018-02-27T09:00:10.120Z,210
2018-02-27T09:01:31.983Z,210
2018-02-27T09:02:54.093Z,215
2018-02-27T09:04:15.715Z,215
2018-02-27T09:05:37.645Z,210
2018-02-27T09:06:59.783Z,200
2018-02-27T09:08:21.460Z,190
2018-02-27T09:09:42.811Z,190
2018-02-27T09:11:04.694Z,190
2018-02-27T09:12:26.566Z,195
2018-02-27T09:13:47.902Z,195
2018-02-27T09:15:10.015Z,195
2018-02-27T09:16:31.872Z,195
2018-02-27T09:17:54.004Z,200
2018-02-27T09:19:15.701Z,200
2018-02-27T09:20:37.632Z,185
2018-02-27T09:21:59.512Z,185
2018-02-27T09:23:21.191Z,185
2018-02-27T09:24:42.815Z,195
2018-02-27T09:26:04.423Z,200
2018-02-27T09:27:26.025Z,200
2018-02-27T09:28:47.452Z,200
2018-02-27T09:30:09.573Z,195
2018-02-27T09:31:31.219Z,195
2018-02-27T09:32:53.100Z,195
2018-02-27T09:34:15.269Z,185
2018-02-27T09:35:37.159Z,180
2018-02-27T09:36:59.152Z,180
2018-02-27T09:38:20.849Z,175
2018-02-27T09:39:42.706Z,175
2018-02-27T09:41:04.342Z,170
2018-02-27T09:42:25.667Z,175
2018-02-27T09:43:47.005Z,185
2018-02-27T09:45:08.801Z,185
2018-02-27T09:46:30.658Z,190
2018-02-27T09:47:52.824Z,190
2018-02-27T09:49:14.713Z,185
2018-02-27T09:50:35.828Z,185
2018-02-27T09:51:57.978Z,180
2018-02-27T09:53:19.851Z,180
2018-02-27T09:54:41.477Z,180
2018-02-27T09:56:03.675Z,180
2018-02-27T09:57:25.531Z,165
2018-02-27T09:58:47.432Z,180
2018-02-27T10:00:09.338Z,180
2018-02-27T10:01:31.302Z,180
2018-02-27T10:02:52.746Z,180
2018-02-27T10:04:14.668Z,180
2018-02-27T10:05:36.893Z,180
2018-02-27T10:06:58.913Z,180
2018-02-27T10:08:20.982Z,185
2018-02-27T10:09:42.903Z,185
2018-02-27T10:11:05.130Z,185
2018-02-27T10:12:27.054Z,185
2018-02-27T10:13:49.401Z,185
2018-02-27T10:15:11.335Z,185
2018-02-27T10:16:33.184Z,185
2018-02-27T10:17:54.826Z,185
2018-02-27T10:19:16.412Z,185
2018-02-27T10:20:38.419Z,185
2018-02-27T10:22:00.572Z,185
2018-02-27T10:23:54.592Z,190
2018-02-27T10:25:16.298Z,195
2018-02-27T10:26:38.168Z,205
2018-02-27T10:28:00.547Z,195
2018-02-27T10:29:21.899Z,195
2018-02-27T10:30:43.849Z,205
2018-02-27T10:32:05.119Z,220
2018-02-27T10:33:27.010Z,220
2018-02-27T10:34:49.221Z,220
2018-02-27T10:36:11.491Z,235
2018-02-27T10:37:33.626Z,225
2018-02-27T10:38:56.047Z,205
2018-02-27T10:40:17.701Z,210
2018-02-27T10:41:39.579Z,200
2018-02-27T10:43:01.201Z,205
2018-02-27T10:44:23.108Z,205
2018-02-27T10:45:45.051Z,200
2018-02-27T10:47:06.982Z,200
2018-02-27T10:48:29.128Z,210
2018-02-27T10:49:50.529Z,210
2018-02-27T10:51:12.426Z,200
2018-02-27T10:52:34.548Z,205
2018-02-27T10:53:56.174Z,200
2018-02-27T10:55:17.597Z,190
2018-02-27T10:56:39.040Z,195
2018-02-27T10:58:01.500Z,200
2018-02-27T10:59:23.494Z,190
2018-02-27T11:00:44.867Z,195
2018-02-27T11:02:06.570Z,205
2018-02-27T11:03:28.945Z,205
2018-02-27T11:04:50.832Z,200
2018-02-27T11:06:12.696Z,190
2018-02-27T11:07:34.640Z,195
2018-02-27T11:08:55.970Z,215
2018-02-27T11:10:18.124Z,230
2018-02-27T11:11:39.711Z,245
2018-02-27T11:13:01.404Z,235
2018-02-27T11:14:23.269Z,265
2018-02-27T11:15:45.177Z,240
2018-02-27T11:17:07.313Z,220
2018-02-27T11:18:29.228Z,235
2018-02-27T11:19:50.856Z,240
2018-02-27T11:21:12.729Z,260
2018-02-27T11:22:34.632Z,275
2018-02-27T11:23:56.810Z,260
2018-02-27T11:25:18.779Z,250
2018-02-27T11:26:40.936Z,245
2018-02-27T11:28:02.833Z,220
2018-02-27T11:29:24.704Z,195
2018-02-27T11:30:46.352Z,185
2018-02-27T11:32:07.972Z,185
2018-02-27T11:33:29.643Z,185
2018-02-27T11:34:51.773Z,185
2018-02-27T11:36:13.502Z,190
2018-02-27T11:37:35.524Z,210
2018-02-27T11:38:57.147Z,220
2018-02-27T11:40:18.764Z,230
2018-02-27T11:41:40.642Z,240
2018-02-27T11:43:02.301Z,260
2018-02-27T11:44:23.700Z,270
2018-02-27T11:45:45.319Z,265
2018-02-27T11:47:06.934Z,280
2018-02-27T11:48:29.101Z,275
2018-02-27T11:49:50.845Z,255
2018-02-27T11:51:12.709Z,220
2018-02-27T11:52:34.726Z,195
2018-02-27T11:53:57.082Z,180
2018-02-27T11:55:19.039Z,185
2018-02-27T11:56:41.017Z,195
2018-02-27T11:58:02.671Z,200
2018-02-27T11:59:24.804Z,210
2018-02-27T12:00:46.937Z,225
2018-02-27T12:02:09.108Z,240
2018-02-27T12:03:30.707Z,260
2018-02-27T12:04:52.312Z,270
2018-02-27T12:06:14.198Z,275
2018-02-27T12:07:36.064Z,280
2018-02-27T12:08:58.217Z,270
2018-02-27T12:10:19.566Z,270
2018-02-27T12:11:40.642Z,280
2018-02-27T12:13:02.522Z,285
2018-02-27T12:14:24.562Z,300
2018-02-27T12:15:46.502Z,320
2018-02-27T12:17:08.656Z,330
2018-02-27T12:18:30.807Z,330
2018-02-27T12:19:52.815Z,325
2018-02-27T12:21:14.959Z,335
2018-02-27T12:22:36.312Z,325
2018-02-27T12:23:58.508Z,330
2018-02-27T12:25:19.853Z,330
2018-02-27T12:26:41.229Z,340
2018-02-27T12:28:03.361Z,335
2018-02-27T12:29:25.319Z,330
2018-02-27T12:30:47.210Z,330
2018-02-27T12:32:08.802Z,325
2018-02-27T12:33:30.562Z,305
2018-02-27T12:34:52.182Z,285
2018-02-27T12:36:14.064Z,265
2018-02-27T12:37:35.963Z,245
2018-02-27T12:38:58.173Z,225
2018-02-27T12:40:20.368Z,200
2018-02-27T12:41:42.275Z,185
2018-02-27T12:43:04.260Z,180
2018-02-27T12:44:26.184Z,175
2018-02-27T12:45:48.333Z,175
2018-02-27T12:47:10.017Z,180
2018-02-27T12:48:31.929Z,190
2018-02-27T12:49:54.132Z,210
2018-02-27T12:51:16.311Z,215
2018-02-27T12:52:37.723Z,230
2018-02-27T12:53:59.583Z,240
2018-02-27T12:55:21.747Z,255
2018-02-27T12:56:43.416Z,270
2018-02-27T12:58:05.573Z,280
2018-02-27T12:59:27.726Z,295
2018-02-27T13:00:49.897Z,315
2018-02-27T13:02:11.695Z,335
2018-02-27T13:03:33.584Z,355
2018-02-27T13:04:55.213Z,360
2018-02-27T13:06:16.938Z,350
2018-02-27T13:07:39.161Z,335
2018-02-27T13:09:01.069Z,330
2018-02-27T13:10:22.945Z,315
2018-02-27T13:11:44.814Z,300
2018-02-27T13:13:06.469Z,280
2018-02-27T13:14:27.547Z,260
2018-02-27T13:15:49.764Z,235
2018-02-27T13:17:11.947Z,230
2018-02-27T13:18:33.912Z,215
2018-02-27T13:19:56.121Z,220
2018-02-27T13:21:17.803Z,215
2018-02-27T13:22:39.154Z,220
2018-02-27T13:24:01.326Z,215
2018-02-27T13:25:23.538Z,210
2018-02-27T13:26:45.453Z,205
2018-02-27T13:28:07.581Z,205
2018-02-27T13:29:29.534Z,205
2018-02-27T13:30:51.450Z,205
2018-02-27T13:32:13.093Z,205
2018-02-27T13:33:35.029Z,215
2018-02-27T13:34:56.693Z,225
2018-02-27T13:36:19.008Z,220
2018-02-27T13:37:40.684Z,215
2018-02-27T13:39:02.842Z,215
2018-02-27T13:40:24.813Z,210
2018-02-27T13:41:46.454Z,210
2018-02-27T13:43:08.456Z,205
2018-02-27T13:44:30.596Z,205
2018-02-27T13:45:52.486Z,205
2018-02-27T13:47:14.644Z,205
2018-02-27T13:48:45.758Z,220
2018-02-27T13:50:08.365Z,220
2018-02-27T13:51:29.722Z,240
2018-02-27T13:52:51.129Z,270
2018-02-27T13:54:13.295Z,290
2018-02-27T13:55:35.174Z,305
2018-02-27T13:56:57.070Z,275
2018-02-27T13:58:19.292Z,240
2018-02-27T13:59:41.451Z,210
2018-02-27T14:01:03.083Z,195
2018-02-27T14:02:25.268Z,175
2018-02-27T14:03:47.198Z,165
2018-02-27T14:05:09.193Z,160
2018-02-27T14:06:31.092Z,170
2018-02-27T14:07:53.267Z,180
2018-02-27T14:09:15.170Z,180
2018-02-27T14:10:37.120Z,185
2018-02-27T14:11:58.994Z,185
2018-02-27T14:13:20.944Z,185
2018-02-27T14:14:42.804Z,185
2018-02-27T14:16:05.014Z,180
2018-02-27T14:17:27.214Z,180
2018-02-27T14:18:48.566Z,175
2018-02-27T14:20:10.186Z,170
2018-02-27T14:21:32.108Z,170
2018-02-27T14:22:53.181Z,160
2018-02-27T14:24:15.159Z,150
2018-02-27T14:25:36.839Z,140
2018-02-27T14:26:58.469Z,135
2018-02-27T14:28:20.365Z,135
2018-02-27T14:29:41.983Z,135
2018-02-27T14:31:03.902Z,135
2018-02-27T14:32:25.837Z,135
2018-02-27T14:33:47.399Z,135
2018-02-27T14:35:09.018Z,135
2018-02-27T14:36:31.181Z,140
2018-02-27T14:37:53.147Z,135
2018-02-27T14:39:15.013Z,135
2018-02-27T14:40:37.116Z,135
2018-02-27T14:41:59.039Z,135
2018-02-27T14:43:20.646Z,130
2018-02-27T14:44:42.548Z,130
2018-02-27T14:46:04.722Z,130
2018-02-27T14:47:26.616Z,125
2018-02-27T14:48:48.762Z,125
2018-02-27T14:50:10.975Z,125
2018-02-27T14:51:32.982Z,125
2018-02-27T14:52:55.139Z,125
2018-02-27T14:54:17.312Z,125
2018-02-27T14:55:38.924Z,120
2018-02-27T14:57:01.092Z,125
2018-02-27T14:58:22.977Z,125
2018-02-27T14:59:45.124Z,125
2018-02-27T15:01:06.473Z,125
2018-02-27T15:02:28.643Z,125
2018-02-27T15:03:50.525Z,125
2018-02-27T15:05:12.693Z,125
2018-02-27T15:06:34.589Z,125
2018-02-27T15:07:56.198Z,125
2018-02-27T15:09:17.549Z,125
2018-02-27T15:10:38.893Z,125
2018-02-27T15:12:00.791Z,125
2018-02-27T15:13:22.955Z,125
2018-02-27T15:14:45.095Z,125
2018-02-27T15:16:07.334Z,125
2018-02-27T15:17:29.239Z,125
2018-02-27T15:18:51.393Z,125
2018-02-27T15:20:13.389Z,120
2018-02-27T15:21:35.378Z,120
2018-02-27T15:22:57.393Z,120
2018-02-27T15:24:19.292Z,115
2018-02-27T15:25:41.188Z,115
2018-02-27T15:27:03.085Z,120
2018-02-27T15:28:24.980Z,120
2018-02-27T15:29:46.713Z,125
2018-02-27T15:31:08.902Z,110
2018-02-27T15:32:30.804Z,105
2018-02-27T15:33:52.713Z,95
2018-02-27T15:35:14.588Z,95
2018-02-27T15:36:37.063Z,95
2018-02-27T15:37:58.982Z,105
2018-02-27T15:39:52.782Z,100
2018-02-27T15:41:14.961Z,100
2018-02-27T15:42:37.291Z,100
2018-02-27T15:43:59.184Z,100
2018-02-27T15:45:20.845Z,105
2018-02-27T15:46:43.007Z,100
2018-02-27T15:48:04.364Z,100
2018-02-27T15:49:26.286Z,100
2018-02-27T15:50:48.483Z,100
2018-02-27T15:52:09.870Z,100
2018-02-27T15:53:31.763Z,100
2018-02-27T15:54:53.674Z,100
2018-02-27T15:56:15.899Z,100
2018-02-27T15:57:37.609Z,100
2018-02-27T15:58:58.972Z,95
2018-02-27T16:00:20.861Z,90
2018-02-27T16:01:42.724Z,85
2018-02-27T16:03:04.332Z,85
2018-02-27T16:04:25.958Z,80
2018-02-27T16:05:48.234Z,80
2018-02-27T16:07:09.894Z,75
2018-02-27T16:08:31.807Z,70
2018-02-27T16:09:54.055Z,70
2018-02-27T16:11:15.664Z,70
2018-02-27T16:12:37.820Z,65
2018-02-27T16:13:59.192Z,60
2018-02-27T16:15:20.271Z,55
2018-02-27T16:16:42.075Z,55
2018-02-27T16:18:03.957Z,50
2018-02-27T16:19:25.306Z,50
2018-02-27T16:20:47.189Z,45
2018-02-27T16:22:09.094Z,45
2018-02-27T16:23:31.040Z,45
2018-02-27T16:24:53.277Z,45
2018-02-27T16:26:14.915Z,45
2018-02-27T16:27:37.133Z,45
2018-02-27T16:28:58.563Z,40
2018-02-27T16:30:20.596Z,35
2018-02-27T16:31:42.831Z,35
2018-02-27T16:33:05.007Z,30
2018-02-27T16:34:26.911Z,30
2018-02-27T16:35:48.826Z,30
2018-02-27T16:37:10.490Z,30
2018-02-27T16:38:32.690Z,25
2018-02-27T16:39:54.682Z,25
2018-02-27T16:41:16.939Z,20
2018-02-27T16:42:39.435Z,20
2018-02-27T16:44:01.663Z,20
2018-02-27T16:45:23.804Z,15
2018-02-27T16:46:45.551Z,15
2018-02-27T16:48:07.455Z,15
2018-02-27T16:49:29.462Z,15
2018-02-27T16:50:51.629Z,10
2018-02-27T16:52:13.287Z,10
2018-02-27T16:53:35.462Z,10
2018-02-27T16:54:57.649Z,10
2018-02-27T16:56:19.617Z,5
2018-02-27T16:57:41.924Z,5
2018-02-27T16:59:04.074Z,5
2018-02-27T17:00:25.977Z,5
2018-02-27T17:01:47.913Z,5
2018-02-27T17:03:10.291Z,5
2018-02-27T17:04:32.190Z,0
2018-02-27T17:05:54.399Z,0
2018-02-27T17:07:16.764Z,0
2018-02-27T17:08:38.515Z,0
2018-02-27T17:10:00.714Z,0
2018-02-27T17:11:22.514Z,0
2018-02-27T17:12:44.512Z,0
2018-02-27T17:14:06.392Z,0
2018-02-27T17:15:28.534Z,0
2018-02-27T17:16:50.502Z,0
2018-02-27T17:18:12.391Z,0
2018-02-27T17:19:34.602Z,0
2018-02-27T17:20:56.694Z,0
2018-02-27T17:22:18.914Z,0
2018-02-27T17:23:40.651Z,0
2018-02-27T17:25:02.834Z,0
2018-02-27T17:26:25.014Z,0
2018-02-27T17:27:46.898Z,0
2018-02-27T17:29:09.124Z,0
2018-02-27T17:30:31.333Z,0
2018-02-27T17:31:53.523Z,0
2018-02-27T17:33:15.907Z,0
2018-02-27T17:34:37.820Z,0
2018-02-27T17:35:59.832Z,0
2018-02-27T17:37:21.858Z,0
2018-02-27T17:38:43.992Z,0
2018-02-27T17:40:06.140Z,0
2018-02-27T17:41:28.337Z,0
2018-02-27T17:42:49.776Z,0
2018-02-27T17:44:11.684Z,0
2018-02-27T17:45:33.580Z,0
2018-02-27T17:46:55.844Z,0
2018-02-27T17:48:17.784Z,0
2018-02-27T17:49:38.881Z,0
2018-02-27T17:51:01.084Z,0
2018-02-27T17:52:23.055Z,0
2018-02-27T17:53:45.282Z,0
2018-02-27T17:55:06.643Z,0
2018-02-27T17:56:28.302Z,0
2018-02-27T17:57:49.935Z,0
2018-02-27T17:59:11.321Z,0
2018-02-27T18:00:33.601Z,0
2018-02-27T18:01:55.550Z,0
2018-02-27T18:03:17.495Z,0
2018-02-27T18:04:39.554Z,0
2018-02-27T18:06:03.962Z,0
2018-02-27T18:07:26.152Z,0
2018-02-27T18:08:48.087Z,0
2018-02-27T18:10:10.310Z,0
2018-02-27T18:11:32.543Z,0
2018-02-27T18:12:54.841Z,0
2018-02-27T18:14:17.520Z,0
2018-02-27T18:15:39.195Z,0
2018-02-27T18:17:01.197Z,0
2018-02-27T18:18:22.609Z,0
2018-02-27T18:19:44.713Z,0
2018-02-27T18:21:06.375Z,0
2018-02-27T18:22:28.286Z,0
2018-02-27T18:23:50.260Z,0
2018-02-27T18:25:11.902Z,0
2018-02-27T18:26:33.325Z,0
2018-02-27T18:27:55.280Z,0
2018-02-27T18:29:17.452Z,0
2018-02-27T18:30:39.664Z,0
2018-02-27T18:32:02.140Z,0
2018-02-27T18:33:23.822Z,0
2018-02-27T18:34:45.506Z,0
2018-02-27T18:36:07.532Z,0
2018-02-27T18:37:29.431Z,0
2018-02-27T18:38:51.163Z,0
2018-02-27T18:40:12.884Z,0
2018-02-27T18:41:34.907Z,0
2018-02-27T18:42:56.974Z,0
2018-02-27T18:44:19.602Z,0
2018-02-27T18:45:41.243Z,0
2018-02-27T18:47:03.019Z,0
2018-02-27T18:48:25.229Z,0
2018-02-27T18:49:47.262Z,0
2018-02-27T18:51:09.497Z,0
2018-02-27T18:52:31.179Z,0
2018-02-27T18:53:52.859Z,0
2018-02-27T18:55:14.815Z,0
2018-02-27T18:56:37.037Z,0
2018-02-27T18:57:58.994Z,0
2018-02-27T18:59:21.493Z,0
2018-02-27T19:00:43.418Z,0
2018-02-27T19:02:05.373Z,0
2018-02-27T19:03:27.033Z,0
2018-02-27T19:04:49.322Z,0
2018-02-27T19:06:10.726Z,0
2018-02-27T19:07:32.653Z,0
2018-02-27T19:08:54.448Z,0
2018-02-27T19:10:16.493Z,0
2018-02-27T19:11:38.203Z,0
2018-02-27T19:13:00.430Z,0
2018-02-27T19:14:22.849Z,0
2018-02-27T19:15:45.168Z,0
2018-02-27T19:17:07.431Z,0
2018-02-27T19:18:29.657Z,0
2018-02-27T19:19:51.591Z,0
2018-02-27T19:21:13.812Z,0
2018-02-27T19:22:35.452Z,0
2018-02-27T19:23:57.408Z,0
2018-02-27T19:25:19.094Z,0
2018-02-27T19:26:41.385Z,0
2018-02-27T19:28:03.040Z,0
2018-02-27T19:29:24.743Z,0
2018-02-27T19:30:47.018Z,0